Time;durP1;ratioP1;P1;durP2;ratioP2;P2;SDS_P1;SDS_P2;PMS_P1;PMS_P2;Temp;Humidity;BMP_temperature;BMP_pressure;BME280_temperature;BME280_humidity;BME280_pressure;Samples;Min_cycle;Max_cycle;Signal;HPM_P1;HPM_P2
2023/04/01 00:00:44;;;;;;;;;;;10.20;99.90;;;;;;5075316;28;19912;-72
2023/04/01 00:03:09;;;;;;;;;;;10.20;99.90;;;;;;5075050;28;19908;-73
2023/04/01 00:05:35;;;;;;;;;;;10.10;99.90;;;;;;5074847;28;20037;-71
2023/04/01 00:08:00;;;;;;;;;;;10.10;99.90;;;;;;5074761;28;19908;-72
2023/04/01 00:10:26;;;;;;;;;;;10.10;99.90;;;;;;5074695;28;19936;-71
2023/04/01 00:12:53;;;;;;;;;;;10.10;99.90;;;;;;5075009;28;19912;-71
2023/04/01 00:15:19;;;;;;;;;;;10.00;99.90;;;;;;5074595;28;19909;-71
2023/04/01 00:17:44;;;;;;;;;;;10.00;99.90;;;;;;5074865;28;20387;-71
2023/04/01 00:20:10;;;;;;;;;;;10.00;99.90;;;;;;5074431;28;19908;-71
2023/04/01 00:22:36;;;;;;;;;;;10.00;99.90;;;;;;5074467;28;20314;-71
2023/04/01 00:25:02;;;;;;;;;;;10.00;99.90;;;;;;5074559;28;19920;-72
2023/04/01 00:27:28;;;;;;;;;;;10.00;99.90;;;;;;5074559;28;20388;-72
2023/04/01 00:29:53;;;;;;;;;;;10.00;99.90;;;;;;5074929;28;19908;-73
2023/04/01 00:32:19;;;;;;;;;;;9.90;99.90;;;;;;5074218;28;20273;-71
2023/04/01 00:34:45;;;;;;;;;;;9.90;99.90;;;;;;5074580;28;19914;-71
2023/04/01 00:37:11;;;;;;;;;;;9.80;99.90;;;;;;5074260;28;19943;-72
2023/04/01 00:39:36;;;;;;;;;;;9.90;99.90;;;;;;5074109;28;19932;-71
2023/04/01 00:42:03;;;;;;;;;;;9.80;99.90;;;;;;5073976;28;19912;-74
2023/04/01 00:44:29;;;;;;;;;;;9.80;99.90;;;;;;5074300;28;19943;-73
2023/04/01 00:46:57;;;;;;;;;;;9.80;99.90;;;;;;5073798;28;20189;-73
2023/04/01 00:49:25;;;;;;;;;;;9.80;99.90;;;;;;5074132;28;20345;-72
2023/04/01 00:51:53;;;;;;;;;;;9.80;99.90;;;;;;5074168;28;19999;-73
2023/04/01 00:54:20;;;;;;;;;;;9.70;99.90;;;;;;5074309;28;20002;-72
2023/04/01 00:56:51;;;;;;;;;;;9.70;99.90;;;;;;5073831;28;19958;-73
2023/04/01 00:59:19;;;;;;;;;;;9.80;99.90;;;;;;5074252;28;19996;-71
2023/04/01 01:01:45;;;;;;;;;;;9.80;99.90;;;;;;5073824;28;19962;-72
2023/04/01 01:04:30;;;;;;;;;;;9.70;99.90;;;;;;5073751;28;19908;-73
2023/04/01 01:06:58;;;;;;;;;;;9.70;99.90;;;;;;5073839;28;20014;-72
2023/04/01 01:09:33;;;;;;;;;;;9.70;99.90;;;;;;5073724;28;20415;-73
2023/04/01 01:11:58;;;;;;;;;;;9.80;99.90;;;;;;5073837;28;19912;-74
2023/04/01 01:14:42;;;;;;;;;;;9.80;99.90;;;;;;5073704;28;19958;-73
2023/04/01 01:17:14;;;;;;;;;;;9.80;99.90;;;;;;5073744;28;20357;-71
2023/04/01 01:19:56;;;;;;;;;;;10.00;99.90;;;;;;5073616;28;19915;-73
2023/04/01 01:22:35;;;;;;;;;;;10.00;99.90;;;;;;5073799;28;19966;-73
2023/04/01 01:25:15;;;;;;;;;;;10.10;99.90;;;;;;5073849;28;20395;-72
2023/04/01 01:27:42;;;;;;;;;;;10.10;99.90;;;;;;5073948;28;19984;-72
2023/04/01 01:30:11;;;;;;;;;;;10.20;99.90;;;;;;5073615;28;19908;-73
2023/04/01 01:32:42;;;;;;;;;;;10.20;99.90;;;;;;5073695;28;20387;-73
2023/04/01 01:35:11;;;;;;;;;;;10.20;99.90;;;;;;5073498;28;19916;-73
2023/04/01 01:37:38;;;;;;;;;;;10.10;99.90;;;;;;5073442;28;19917;-74
2023/04/01 01:40:05;;;;;;;;;;;10.10;99.90;;;;;;5073450;28;19908;-73
2023/04/01 01:42:34;;;;;;;;;;;10.00;99.90;;;;;;5073617;28;20384;-73
2023/04/01 01:45:01;;;;;;;;;;;9.90;99.90;;;;;;5073686;28;19913;-74
2023/04/01 01:47:28;;;;;;;;;;;10.00;99.90;;;;;;5073611;28;20392;-73
2023/04/01 01:49:55;;;;;;;;;;;10.00;99.90;;;;;;5073546;28;19909;-73
2023/04/01 01:52:21;;;;;;;;;;;10.00;99.90;;;;;;5073581;28;20388;-72
2023/04/01 01:54:53;;;;;;;;;;;10.00;99.90;;;;;;5073429;28;19909;-74
2023/04/01 01:57:23;;;;;;;;;;;10.00;99.90;;;;;;5073240;28;20380;-74
2023/04/01 01:59:49;;;;;;;;;;;9.90;99.90;;;;;;5073818;28;19915;-73
2023/04/01 02:02:15;;;;;;;;;;;10.10;99.90;;;;;;5073242;28;20292;-72
2023/04/01 02:04:43;;;;;;;;;;;10.20;99.90;;;;;;5073417;28;19915;-73
2023/04/01 02:07:11;;;;;;;;;;;10.20;99.90;;;;;;5073322;28;19913;-73
2023/04/01 02:09:37;;;;;;;;;;;10.10;99.90;;;;;;5074863;28;19908;-72
2023/04/01 02:12:05;;;;;;;;;;;10.00;99.90;;;;;;5077152;28;19914;-72
2023/04/01 02:14:37;;;;;;;;;;;9.90;99.90;;;;;;5076899;28;20284;-74
2023/04/01 02:17:05;;;;;;;;;;;9.80;99.90;;;;;;5077023;28;20341;-73
2023/04/01 02:19:37;;;;;;;;;;;9.70;99.90;;;;;;5076869;28;19995;-73
2023/04/01 02:22:04;;;;;;;;;;;9.70;99.90;;;;;;5077005;28;19912;-72
2023/04/01 02:24:31;;;;;;;;;;;9.60;99.90;;;;;;5076723;28;19955;-73
2023/04/01 02:26:56;;;;;;;;;;;9.60;99.90;;;;;;5076605;28;20284;-73
2023/04/01 02:29:24;;;;;;;;;;;9.60;99.90;;;;;;5076686;28;19919;-72
2023/04/01 02:31:51;;;;;;;;;;;9.60;99.90;;;;;;5076843;28;19931;-72
2023/04/01 02:34:16;;;;;;;;;;;9.60;99.90;;;;;;5076909;28;19908;-74
2023/04/01 02:36:42;;;;;;;;;;;9.50;99.90;;;;;;5075175;28;19912;-74
2023/04/01 02:39:08;;;;;;;;;;;9.40;99.90;;;;;;5076411;28;19954;-73
2023/04/01 02:41:43;;;;;;;;;;;9.40;99.90;;;;;;5076416;28;20283;-73
2023/04/01 02:44:10;;;;;;;;;;;9.40;99.90;;;;;;5076013;28;19916;-73
2023/04/01 02:46:36;;;;;;;;;;;9.40;99.90;;;;;;5076433;28;20422;-72
2023/04/01 02:49:02;;;;;;;;;;;9.30;99.90;;;;;;5076281;28;19912;-72
2023/04/01 02:51:27;;;;;;;;;;;9.20;99.90;;;;;;5076378;28;19954;-73
2023/04/01 02:53:53;;;;;;;;;;;9.30;99.90;;;;;;5076138;28;19955;-73
2023/04/01 02:56:19;;;;;;;;;;;9.20;99.90;;;;;;5076102;28;19977;-73
2023/04/01 02:58:45;;;;;;;;;;;9.30;99.90;;;;;;5074725;28;19908;-73
2023/04/01 03:01:11;;;;;;;;;;;9.30;99.90;;;;;;5076286;28;19915;-74
2023/04/01 03:03:36;;;;;;;;;;;9.20;99.90;;;;;;5075983;28;19908;-73
2023/04/01 03:06:08;;;;;;;;;;;9.20;99.90;;;;;;5075847;28;19956;-72
2023/04/01 03:08:34;;;;;;;;;;;9.20;99.90;;;;;;5075919;28;19915;-74
2023/04/01 03:11:00;;;;;;;;;;;9.20;99.90;;;;;;5075908;28;19913;-73
2023/04/01 03:13:25;;;;;;;;;;;9.10;99.90;;;;;;5075818;28;20369;-72
2023/04/01 03:15:51;;;;;;;;;;;9.00;99.90;;;;;;5076017;28;19912;-74
2023/04/01 03:18:17;;;;;;;;;;;9.10;99.90;;;;;;5075910;28;19916;-72
2023/04/01 03:20:42;;;;;;;;;;;9.00;99.90;;;;;;5074730;28;19912;-74
2023/04/01 03:23:08;;;;;;;;;;;9.00;99.90;;;;;;5076116;28;19939;-73
2023/04/01 03:25:33;;;;;;;;;;;9.00;99.90;;;;;;5075506;28;19935;-72
2023/04/01 03:27:59;;;;;;;;;;;9.10;99.90;;;;;;5075537;28;19908;-72
2023/04/01 03:30:25;;;;;;;;;;;9.10;99.90;;;;;;5075570;28;20379;-73
2023/04/01 03:32:51;;;;;;;;;;;9.20;99.90;;;;;;5075477;28;19932;-73
2023/04/01 03:35:17;;;;;;;;;;;9.30;99.90;;;;;;5075591;28;20364;-73
2023/04/01 03:37:42;;;;;;;;;;;9.40;99.90;;;;;;5075395;28;19915;-73
2023/04/01 03:40:08;;;;;;;;;;;9.40;99.90;;;;;;5075312;28;19908;-73
2023/04/01 03:42:35;;;;;;;;;;;9.50;99.90;;;;;;5075176;28;19958;-73
2023/04/01 03:45:00;;;;;;;;;;;9.60;99.90;;;;;;5073853;28;19991;-73
2023/04/01 03:47:26;;;;;;;;;;;9.60;99.90;;;;;;5075172;28;20022;-73
2023/04/01 03:49:52;;;;;;;;;;;9.70;99.90;;;;;;5075440;28;20378;-73
2023/04/01 03:52:17;;;;;;;;;;;9.70;99.90;;;;;;5075107;28;19995;-72
2023/04/01 03:54:43;;;;;;;;;;;9.70;99.90;;;;;;5075070;28;19915;-72
2023/04/01 03:57:08;;;;;;;;;;;9.80;99.90;;;;;;5075272;28;19938;-71
2023/04/01 03:59:34;;;;;;;;;;;9.80;99.90;;;;;;5074901;28;20365;-73
2023/04/01 04:02:00;;;;;;;;;;;9.80;99.90;;;;;;5074848;28;19909;-73
2023/04/01 04:04:26;;;;;;;;;;;9.80;99.90;;;;;;5074803;28;19932;-73
2023/04/01 04:06:51;;;;;;;;;;;9.80;99.90;;;;;;5074855;28;20007;-72
2023/04/01 04:09:17;;;;;;;;;;;9.80;99.90;;;;;;5075029;28;20392;-71
2023/04/01 04:11:43;;;;;;;;;;;9.90;99.90;;;;;;5073331;28;19909;-73
2023/04/01 04:14:08;;;;;;;;;;;9.80;99.90;;;;;;5074607;28;19999;-73
2023/04/01 04:16:36;;;;;;;;;;;9.80;99.90;;;;;;5074557;28;19938;-73
2023/04/01 04:19:02;;;;;;;;;;;9.70;99.90;;;;;;5074487;28;19915;-73
2023/04/01 04:21:27;;;;;;;;;;;9.70;99.90;;;;;;5074471;28;19931;-72
2023/04/01 04:23:53;;;;;;;;;;;9.70;99.90;;;;;;5074510;28;20368;-72
2023/04/01 04:26:19;;;;;;;;;;;9.80;99.90;;;;;;5074331;28;20003;-72
2023/04/01 04:28:45;;;;;;;;;;;9.80;99.90;;;;;;5074613;28;19914;-72
2023/04/01 04:31:10;;;;;;;;;;;9.80;99.90;;;;;;5074238;28;20408;-72
2023/04/01 04:33:36;;;;;;;;;;;9.70;99.90;;;;;;5073966;28;19940;-73
2023/04/01 04:36:03;;;;;;;;;;;9.70;99.90;;;;;;5074181;28;19913;-73
2023/04/01 04:38:29;;;;;;;;;;;9.70;99.90;;;;;;5074068;28;19912;-73
2023/04/01 04:40:54;;;;;;;;;;;9.70;99.90;;;;;;5074103;28;19919;-73
2023/04/01 04:43:20;;;;;;;;;;;9.60;99.90;;;;;;5072684;28;19916;-73
2023/04/01 04:45:46;;;;;;;;;;;9.60;99.90;;;;;;5074164;28;19944;-73
2023/04/01 04:48:16;;;;;;;;;;;9.50;99.90;;;;;;5073980;28;20261;-72
2023/04/01 04:50:41;;;;;;;;;;;9.50;99.90;;;;;;5072659;28;19908;-74
2023/04/01 04:53:09;;;;;;;;;;;9.50;99.90;;;;;;5073976;28;19913;-73
2023/04/01 04:55:35;;;;;;;;;;;9.50;99.90;;;;;;5073918;28;19908;-74
2023/04/01 04:58:01;;;;;;;;;;;9.50;99.90;;;;;;5073991;28;19932;-72
2023/04/01 05:00:26;;;;;;;;;;;9.50;99.90;;;;;;5073899;28;19908;-73
2023/04/01 05:02:52;;;;;;;;;;;9.50;99.90;;;;;;5073851;28;20373;-72
2023/04/01 05:05:18;;;;;;;;;;;9.40;99.90;;;;;;5074193;28;19919;-74
2023/04/01 05:07:44;;;;;;;;;;;9.30;99.90;;;;;;5073816;28;20056;-72
2023/04/01 05:10:09;;;;;;;;;;;9.20;99.90;;;;;;5073838;28;19908;-72
2023/04/01 05:12:38;;;;;;;;;;;9.20;99.90;;;;;;5073689;28;19939;-73
2023/04/01 05:15:04;;;;;;;;;;;9.10;99.90;;;;;;5073678;28;19908;-72
2023/04/01 05:17:30;;;;;;;;;;;9.00;99.90;;;;;;5073713;28;19909;-74
2023/04/01 05:19:56;;;;;;;;;;;9.00;99.90;;;;;;5072385;28;19958;-71
2023/04/01 05:22:21;;;;;;;;;;;9.00;99.90;;;;;;5073644;28;19916;-73
2023/04/01 05:24:47;;;;;;;;;;;9.00;99.90;;;;;;5074017;28;19909;-73
2023/04/01 05:27:12;;;;;;;;;;;9.10;99.90;;;;;;5073917;28;20368;-73
2023/04/01 05:29:38;;;;;;;;;;;9.10;99.90;;;;;;5073827;28;19920;-73
2023/04/01 05:32:03;;;;;;;;;;;9.00;99.90;;;;;;5073555;28;19995;-72
2023/04/01 05:34:29;;;;;;;;;;;9.00;99.90;;;;;;5073714;28;20300;-72
2023/04/01 05:36:55;;;;;;;;;;;8.90;99.90;;;;;;5073473;28;19909;-72
2023/04/01 05:39:20;;;;;;;;;;;8.90;99.90;;;;;;5073516;28;19995;-73
2023/04/01 05:41:46;;;;;;;;;;;8.90;99.90;;;;;;5073508;28;19908;-72
2023/04/01 05:44:12;;;;;;;;;;;8.90;99.90;;;;;;5074392;28;20382;-73
2023/04/01 05:46:37;;;;;;;;;;;8.80;99.90;;;;;;5077602;28;19956;-74
2023/04/01 05:49:03;;;;;;;;;;;8.80;99.90;;;;;;5077857;28;19947;-72
2023/04/01 05:51:29;;;;;;;;;;;8.80;99.90;;;;;;5077443;28;20353;-74
2023/04/01 05:53:54;;;;;;;;;;;8.80;99.90;;;;;;5077355;28;19912;-74
2023/04/01 05:56:20;;;;;;;;;;;8.90;99.90;;;;;;5077507;28;19909;-73
2023/04/01 05:58:47;;;;;;;;;;;8.90;99.90;;;;;;5077402;28;19991;-74
2023/04/01 06:01:13;;;;;;;;;;;8.90;99.90;;;;;;5077035;28;20323;-72
2023/04/01 06:03:38;;;;;;;;;;;8.90;99.90;;;;;;5077168;28;19915;-71
2023/04/01 06:06:08;;;;;;;;;;;8.90;99.90;;;;;;5077106;28;20016;-73
2023/04/01 06:08:33;;;;;;;;;;;8.90;99.90;;;;;;5077544;28;19915;-73
2023/04/01 06:11:18;;;;;;;;;;;8.90;99.90;;;;;;5077016;28;19916;-73
2023/04/01 06:14:05;;;;;;;;;;;9.00;99.90;;;;;;5076886;28;19916;-72
2023/04/01 06:16:39;;;;;;;;;;;9.00;99.90;;;;;;5076853;28;19909;-72
2023/04/01 06:19:11;;;;;;;;;;;9.20;99.90;;;;;;5077008;28;19908;-72
2023/04/01 06:21:47;;;;;;;;;;;9.40;99.90;;;;;;5075898;28;19947;-72
2023/04/01 06:24:33;;;;;;;;;;;9.70;99.90;;;;;;5076843;28;19908;-72
2023/04/01 06:27:05;;;;;;;;;;;10.00;99.90;;;;;;5076131;28;19912;-72
2023/04/01 06:29:46;;;;;;;;;;;10.30;99.90;;;;;;5076646;28;20000;-72
2023/04/01 06:32:18;;;;;;;;;;;10.40;99.90;;;;;;5076640;28;19908;-74
2023/04/01 06:34:46;;;;;;;;;;;10.80;99.90;;;;;;5076614;28;20356;-73
2023/04/01 06:37:17;;;;;;;;;;;11.10;99.90;;;;;;5076505;28;19952;-72
2023/04/01 06:40:03;;;;;;;;;;;11.40;99.90;;;;;;5076723;28;19913;-75
2023/04/01 06:42:37;;;;;;;;;;;11.50;99.90;;;;;;5076240;28;19912;-74
2023/04/01 06:45:26;;;;;;;;;;;11.10;99.90;;;;;;5076674;28;19981;-72
2023/04/01 06:47:52;;;;;;;;;;;11.00;99.90;;;;;;5076432;28;20388;-72
2023/04/01 06:50:36;;;;;;;;;;;11.70;99.90;;;;;;5076447;28;19908;-73
2023/04/01 06:53:11;;;;;;;;;;;12.00;99.90;;;;;;5076191;28;19995;-73
2023/04/01 06:55:48;;;;;;;;;;;12.70;99.90;;;;;;5075984;28;20314;-73
2023/04/01 06:58:22;;;;;;;;;;;12.90;99.90;;;;;;5076028;28;20284;-73
2023/04/01 07:00:49;;;;;;;;;;;13.20;99.90;;;;;;5076551;28;19909;-74
2023/04/01 07:03:17;;;;;;;;;;;13.50;99.90;;;;;;5076353;28;19908;-73
2023/04/01 07:05:43;;;;;;;;;;;13.70;99.90;;;;;;5075968;28;19946;-73
2023/04/01 07:08:11;;;;;;;;;;;14.00;99.90;;;;;;5075925;28;19912;-73
2023/04/01 07:10:43;;;;;;;;;;;13.80;99.90;;;;;;5076128;28;19931;-75
2023/04/01 07:13:26;;;;;;;;;;;13.20;99.90;;;;;;5075971;28;19909;-73
2023/04/01 07:15:56;;;;;;;;;;;12.70;99.90;;;;;;5076075;28;19919;-73
2023/04/01 07:18:24;;;;;;;;;;;12.60;99.90;;;;;;5075707;28;19915;-71
2023/04/01 07:20:51;;;;;;;;;;;12.50;99.90;;;;;;5076259;28;20315;-73
2023/04/01 07:23:22;;;;;;;;;;;12.50;99.90;;;;;;5075660;28;20015;-72
2023/04/01 07:25:50;;;;;;;;;;;12.40;99.90;;;;;;5075628;28;19958;-74
2023/04/01 07:28:16;;;;;;;;;;;12.30;99.90;;;;;;5075553;28;19909;-73
2023/04/01 07:30:57;;;;;;;;;;;12.40;99.90;;;;;;5075680;28;20004;-72
2023/04/01 07:33:27;;;;;;;;;;;12.50;99.90;;;;;;5075648;28;20308;-73
2023/04/01 07:36:01;;;;;;;;;;;13.00;49.50;;;;;;5075985;28;19935;-73
2023/04/01 07:38:38;;;;;;;;;;;13.50;13.30;;;;;;5075734;28;19931;-73
2023/04/01 07:41:13;;;;;;;;;;;13.70;8.40;;;;;;5075455;28;19914;-73
2023/04/01 07:43:56;;;;;;;;;;;14.40;1.00;;;;;;5075161;28;19963;-73
2023/04/01 07:46:46;;;;;;;;;;;16.30;1.00;;;;;;5075519;28;20003;-73
2023/04/01 07:49:24;;;;;;;;;;;15.50;1.00;;;;;;5075448;28;19909;-75
2023/04/01 07:52:00;;;;;;;;;;;14.50;1.00;;;;;;5075067;28;19912;-73
2023/04/01 07:54:25;;;;;;;;;;;13.60;1.00;;;;;;5075442;28;19909;-72
2023/04/01 07:56:58;;;;;;;;;;;13.40;1.00;;;;;;5074877;28;19913;-73
2023/04/01 07:59:42;;;;;;;;;;;13.50;5.30;;;;;;5074856;28;19936;-73
2023/04/01 08:02:36;;;;;;;;;;;13.70;1.00;;;;;;5074797;28;19958;-74
2023/04/01 08:05:19;;;;;;;;;;;14.20;1.00;;;;;;5038033;28;20002;-72
2023/04/01 08:07:57;;;;;;;;;;;15.60;1.00;;;;;;5074313;28;19908;-73
2023/04/01 08:10:28;;;;;;;;;;;15.00;1.00;;;;;;5074676;28;19916;-74
2023/04/01 08:12:57;;;;;;;;;;;14.60;1.00;;;;;;5074892;28;19909;-73
2023/04/01 08:15:27;;;;;;;;;;;14.50;1.00;;;;;;5074548;28;19912;-74
2023/04/01 08:17:58;;;;;;;;;;;14.00;1.00;;;;;;5074585;28;19934;-73
2023/04/01 08:20:32;;;;;;;;;;;13.70;1.00;;;;;;5075273;28;19909;-73
2023/04/01 08:23:08;;;;;;;;;;;13.00;6.30;;;;;;5072878;28;19909;-73
2023/04/01 08:25:33;;;;;;;;;;;13.50;11.60;;;;;;5074624;28;19916;-74
2023/04/01 08:28:08;;;;;;;;;;;15.30;1.00;;;;;;5074372;28;19909;-73
2023/04/01 08:30:52;;;;;;;;;;;15.90;1.00;;;;;;5074547;28;19908;-74
2023/04/01 08:33:25;;;;;;;;;;;16.30;1.00;;;;;;5074542;28;19915;-73
2023/04/01 08:36:23;;;;;;;;;;;18.50;1.00;;;;;;5074549;28;19908;-74
2023/04/01 08:38:54;;;;;;;;;;;20.80;1.00;;;;;;5050844;28;19908;-74
2023/04/01 08:41:37;;;;;;;;;;;22.00;1.00;;;;;;5074361;28;19932;-74
2023/04/01 08:44:21;;;;;;;;;;;22.10;1.00;;;;;;5072053;28;20489;-72
2023/04/01 08:46:47;;;;;;;;;;;20.20;1.00;;;;;;5074275;28;19917;-73
2023/04/01 08:49:31;;;;;;;;;;;18.30;1.00;;;;;;5073024;28;19919;-72
2023/04/01 08:52:08;;;;;;;;;;;16.40;1.00;;;;;;5074241;28;19908;-73
2023/04/01 08:54:44;;;;;;;;;;;16.30;1.00;;;;;;5055439;28;19931;-73
2023/04/01 08:57:12;;;;;;;;;;;15.90;1.00;;;;;;5054394;28;19909;-74
2023/04/01 08:59:53;;;;;;;;;;;15.70;1.00;;;;;;5053922;28;19916;-75
2023/04/01 09:02:35;;;;;;;;;;;15.50;1.00;;;;;;5054316;28;19909;-74
2023/04/01 09:05:19;;;;;;;;;;;15.30;1.00;;;;;;5053685;28;20274;-75
2023/04/01 09:07:51;;;;;;;;;;;15.30;1.00;;;;;;5054503;28;20298;-74
2023/04/01 09:10:35;;;;;;;;;;;15.00;1.00;;;;;;5052658;28;20331;-74
2023/04/01 09:13:19;;;;;;;;;;;14.60;1.00;;;;;;5053485;28;19916;-72
2023/04/01 09:16:03;;;;;;;;;;;14.20;1.00;;;;;;5053762;28;19909;-75
2023/04/01 09:18:50;;;;;;;;;;;14.50;1.00;;;;;;5053598;28;19909;-72
2023/04/01 09:21:18;;;;;;;;;;;15.10;1.00;;;;;;5054076;28;19908;-74
2023/04/01 09:23:53;;;;;;;;;;;15.20;1.00;;;;;;5053476;28;19935;-74
2023/04/01 09:26:21;;;;;;;;;;;15.00;1.00;;;;;;5053800;28;19912;-73
2023/04/01 09:29:11;;;;;;;;;;;15.00;1.00;;;;;;5053998;28;19950;-74
2023/04/01 09:31:43;;;;;;;;;;;14.70;1.00;;;;;;5053953;28;19909;-72
2023/04/01 09:34:14;;;;;;;;;;;14.80;1.00;;;;;;5053396;28;19909;-73
2023/04/01 09:36:58;;;;;;;;;;;14.50;1.00;;;;;;5053557;28;19916;-73
2023/04/01 09:39:26;;;;;;;;;;;14.40;1.00;;;;;;5053620;28;19912;-72
2023/04/01 09:42:01;;;;;;;;;;;14.60;1.00;;;;;;5053959;28;20420;-72
2023/04/01 09:44:27;;;;;;;;;;;14.60;1.00;;;;;;5064526;28;19962;-74
2023/04/01 09:46:52;;;;;;;;;;;14.90;1.00;;;;;;5073351;28;20319;-72
2023/04/01 09:49:27;;;;;;;;;;;15.10;1.00;;;;;;5073573;28;19999;-72
2023/04/01 09:52:03;;;;;;;;;;;16.60;1.00;;;;;;5073736;28;20391;-74
2023/04/01 09:54:47;;;;;;;;;;;17.50;1.00;;;;;;5073380;28;20003;-74
2023/04/01 09:57:30;;;;;;;;;;;16.60;1.00;;;;;;5073305;28;19912;-73
2023/04/01 10:00:14;;;;;;;;;;;15.50;1.00;;;;;;5073503;28;19908;-73
2023/04/01 10:02:43;;;;;;;;;;;15.30;1.00;;;;;;5072967;28;19973;-74
2023/04/01 10:05:27;;;;;;;;;;;16.20;1.00;;;;;;5073193;28;20399;-73
2023/04/01 10:07:52;;;;;;;;;;;16.30;1.00;;;;;;5073171;28;19912;-74
2023/04/01 10:10:21;;;;;;;;;;;19.60;1.00;;;;;;5073233;28;19995;-74
2023/04/01 10:12:56;;;;;;;;;;;25.50;1.00;;;;;;5073150;28;20292;-74
2023/04/01 10:15:24;;;;;;;;;;;27.70;1.00;;;;;;5073098;28;19909;-75
2023/04/01 10:17:57;;;;;;;;;;;28.20;1.00;;;;;;5073282;28;19909;-73
2023/04/01 10:20:22;;;;;;;;;;;25.90;1.00;;;;;;5073302;28;19909;-72
2023/04/01 10:23:23;;;;;;;;;;;22.20;1.00;;;;;;5073083;28;19931;-72
2023/04/01 10:25:49;;;;;;;;;;;20.20;1.00;;;;;;5050890;28;20050;-73
2023/04/01 10:28:35;;;;;;;;;;;18.70;1.00;;;;;;5068311;28;19946;-73
2023/04/01 10:31:13;;;;;;;;;;;18.20;1.00;;;;;;5064340;28;19952;-74
2023/04/01 10:33:51;;;;;;;;;;;17.80;1.00;;;;;;5077065;28;20363;-73
2023/04/01 10:36:22;;;;;;;;;;;17.20;1.00;;;;;;5075001;28;19915;-73
2023/04/01 10:38:48;;;;;;;;;;;17.90;1.00;;;;;;5074635;28;19908;-73
2023/04/01 10:41:13;;;;;;;;;;;21.20;1.00;;;;;;5076065;28;19915;-73
2023/04/01 10:43:42;;;;;;;;;;;21.30;1.00;;;;;;5075153;28;19958;-73
2023/04/01 10:46:19;;;;;;;;;;;20.20;1.00;;;;;;5076004;28;19923;-74
2023/04/01 10:48:54;;;;;;;;;;;23.60;1.00;;;;;;5076439;28;19916;-72
2023/04/01 10:51:38;;;;;;;;;;;26.80;1.00;;;;;;5074584;28;20361;-72
2023/04/01 10:54:22;;;;;;;;;;;27.70;1.00;;;;;;5074549;28;19908;-72
2023/04/01 10:57:12;;;;;;;;;;;26.80;1.00;;;;;;5074353;28;20328;-74
2023/04/01 10:59:50;;;;;;;;;;;22.60;1.00;;;;;;5064281;28;19917;-73
2023/04/01 11:02:34;;;;;;;;;;;19.60;1.00;;;;;;5075280;28;19943;-73
2023/04/01 11:05:18;;;;;;;;;;;17.80;1.00;;;;;;5075664;28;19908;-73
2023/04/01 11:07:46;;;;;;;;;;;17.70;1.00;;;;;;5076237;28;19979;-74
2023/04/01 11:10:15;;;;;;;;;;;18.40;1.00;;;;;;5076124;28;19994;-73
2023/04/01 11:13:10;;;;;;;;;;;17.60;1.00;;;;;;5075851;28;19916;-73
2023/04/01 11:15:55;;;;;;;;;;;17.40;1.00;;;;;;5056322;28;20341;-74
2023/04/01 11:18:39;;;;;;;;;;;21.90;1.00;;;;;;5075786;28;20288;-72
2023/04/01 11:21:05;;;;;;;;;;;21.90;1.00;;;;;;5075799;28;19908;-73
2023/04/01 11:23:30;;;;;;;;;;;20.30;1.00;;;;;;5075661;28;19915;-72
2023/04/01 11:25:56;;;;;;;;;;;19.40;1.00;;;;;;5075934;28;20015;-74
2023/04/01 11:28:33;;;;;;;;;;;18.70;1.00;;;;;;5075749;28;19916;-74
2023/04/01 11:30:59;;;;;;;;;;;19.30;1.00;;;;;;5075501;28;19908;-73
2023/04/01 11:33:36;;;;;;;;;;;20.20;1.00;;;;;;5075529;28;20413;-74
2023/04/01 11:36:20;;;;;;;;;;;21.00;1.00;;;;;;5075422;28;19908;-74
2023/04/01 11:38:54;;;;;;;;;;;21.70;1.00;;;;;;5075388;28;19958;-75
2023/04/01 11:41:39;;;;;;;;;;;25.40;1.00;;;;;;5074516;28;19938;-75
2023/04/01 11:44:18;;;;;;;;;;;26.50;1.00;;;;;;5074881;28;19923;-75
2023/04/01 11:46:44;;;;;;;;;;;29.70;1.00;;;;;;5075529;28;19962;-75
2023/04/01 11:49:21;;;;;;;;;;;33.00;1.00;;;;;;5075361;28;19908;-75
2023/04/01 11:52:10;;;;;;;;;;;33.60;1.00;;;;;;5075332;28;19915;-76
2023/04/01 11:54:44;;;;;;;;;;;33.50;1.00;;;;;;5071739;28;19908;-74
2023/04/01 11:57:17;;;;;;;;;;;33.90;1.00;;;;;;5075093;28;19995;-75
2023/04/01 11:59:43;;;;;;;;;;;35.20;1.00;;;;;;5075257;28;19913;-75
2023/04/01 12:02:14;;;;;;;;;;;35.80;1.00;;;;;;5075183;28;20321;-75
2023/04/01 12:04:54;;;;;;;;;;;37.00;1.00;;;;;;5073376;28;19958;-76
2023/04/01 12:07:22;;;;;;;;;;;33.40;1.00;;;;;;5075052;28;19908;-74
2023/04/01 12:10:06;;;;;;;;;;;33.80;1.00;;;;;;5074993;28;19915;-75
2023/04/01 12:12:40;;;;;;;;;;;34.60;1.00;;;;;;5075218;28;19913;-74
2023/04/01 12:15:15;;;;;;;;;;;34.30;1.00;;;;;;5074915;28;19958;-76
2023/04/01 12:17:59;;;;;;;;;;;31.30;1.00;;;;;;5075085;28;19912;-75
2023/04/01 12:20:33;;;;;;;;;;;27.90;1.00;;;;;;5074636;28;19948;-73
2023/04/01 12:22:59;;;;;;;;;;;;;;;;;;5074619;28;19908;-73
2023/04/01 12:25:24;;;;;;;;;;;23.40;1.00;;;;;;5074540;28;19904;-74
2023/04/01 12:27:50;;;;;;;;;;;26.40;1.00;;;;;;5075050;28;19958;-73
2023/04/01 12:30:22;;;;;;;;;;;25.70;1.00;;;;;;5073276;28;19915;-73
2023/04/01 12:32:54;;;;;;;;;;;23.40;1.00;;;;;;5074397;28;19909;-73
2023/04/01 12:35:20;;;;;;;;;;;21.70;1.00;;;;;;5074174;28;20011;-73
2023/04/01 12:37:54;;;;;;;;;;;20.10;1.00;;;;;;5074210;28;19999;-74
2023/04/01 12:40:24;;;;;;;;;;;19.00;1.00;;;;;;5074340;28;19912;-73
2023/04/01 12:42:50;;;;;;;;;;;18.10;1.00;;;;;;5073975;28;19965;-71
2023/04/01 12:45:18;;;;;;;;;;;17.60;1.00;;;;;;5074204;28;19908;-73
2023/04/01 12:47:56;;;;;;;;;;;17.60;1.00;;;;;;5074056;28;19908;-72
2023/04/01 12:50:21;;;;;;;;;;;18.30;1.00;;;;;;5074437;28;19947;-73
2023/04/01 12:52:56;;;;;;;;;;;18.80;1.00;;;;;;5073734;28;19910;-73
2023/04/01 12:55:28;;;;;;;;;;;19.20;1.00;;;;;;5074267;28;20019;-73
2023/04/01 12:58:05;;;;;;;;;;;19.70;1.00;;;;;;5073830;28;19912;-73
2023/04/01 13:00:50;;;;;;;;;;;19.60;1.00;;;;;;5073899;28;19909;-74
2023/04/01 13:03:18;;;;;;;;;;;19.10;1.00;;;;;;5073936;28;19916;-72
2023/04/01 13:05:56;;;;;;;;;;;18.80;1.00;;;;;;5073929;28;19908;-72
2023/04/01 13:08:25;;;;;;;;;;;18.60;1.00;;;;;;5074045;28;19908;-72
2023/04/01 13:11:08;;;;;;;;;;;18.60;1.00;;;;;;5074029;28;19908;-73
2023/04/01 13:13:40;;;;;;;;;;;19.10;1.00;;;;;;5073769;28;19909;-73
2023/04/01 13:16:12;;;;;;;;;;;25.20;1.00;;;;;;5073881;28;19913;-75
2023/04/01 13:18:56;;;;;;;;;;;30.40;1.00;;;;;;5073902;28;19995;-74
2023/04/01 13:21:34;;;;;;;;;;;32.60;1.00;;;;;;5073671;28;19909;-72
2023/04/01 13:24:05;;;;;;;;;;;29.00;1.00;;;;;;5074208;28;20378;-74
2023/04/01 13:26:37;;;;;;;;;;;26.90;1.00;;;;;;5073737;28;19908;-73
2023/04/01 13:29:08;;;;;;;;;;;24.20;1.00;;;;;;5073544;28;19909;-73
2023/04/01 13:31:34;;;;;;;;;;;22.00;1.00;;;;;;5073538;28;19908;-73
2023/04/01 13:34:00;;;;;;;;;;;;;;;;;;5073499;28;20365;-73
2023/04/01 13:36:44;;;;;;;;;;;23.00;1.00;;;;;;5073790;28;19934;-75
2023/04/01 13:39:23;;;;;;;;;;;30.80;1.00;;;;;;5073526;28;20384;-74
2023/04/01 13:41:55;;;;;;;;;;;35.70;1.00;;;;;;5073320;28;19936;-73
2023/04/01 13:44:26;;;;;;;;;;;37.70;1.00;;;;;;5072996;28;20284;-72
2023/04/01 13:47:13;;;;;;;;;;;37.20;1.00;;;;;;5073324;28;19927;-73
2023/04/01 13:49:42;;;;;;;;;;;37.80;1.00;;;;;;5073354;28;20365;-73
2023/04/01 13:52:07;;;;;;;;;;;39.40;1.00;;;;;;5073371;28;19955;-72
2023/04/01 13:54:42;;;;;;;;;;;39.60;1.00;;;;;;5073290;28;19947;-72
2023/04/01 13:57:17;;;;;;;;;;;37.30;1.00;;;;;;5073178;28;20353;-73
2023/04/01 13:59:58;;;;;;;;;;;36.80;1.00;;;;;;5073099;28;19913;-74
2023/04/01 14:02:42;;;;;;;;;;;34.00;1.00;;;;;;5073047;28;20342;-73
2023/04/01 14:05:14;;;;;;;;;;;28.00;1.00;;;;;;5074284;28;19909;-73
2023/04/01 14:07:39;;;;;;;;;;;24.20;1.00;;;;;;5077200;28;19908;-73
2023/04/01 14:10:24;;;;;;;;;;;22.70;1.00;;;;;;5077054;28;19958;-74
2023/04/01 14:12:58;;;;;;;;;;;26.30;1.00;;;;;;5077545;28;19941;-73
2023/04/01 14:15:51;;;;;;;;;;;24.90;1.00;;;;;;5076978;28;19919;-72
2023/04/01 14:18:35;;;;;;;;;;;23.30;1.00;;;;;;5077128;28;20023;-72
2023/04/01 14:21:19;;;;;;;;;;;21.30;1.00;;;;;;5077029;28;20438;-73
2023/04/01 14:23:47;;;;;;;;;;;20.60;1.00;;;;;;5076742;28;20357;-73
2023/04/01 14:26:16;;;;;;;;;;;23.80;1.00;;;;;;5075426;28;20496;-74
2023/04/01 14:28:59;;;;;;;;;;;27.80;1.00;;;;;;5076683;28;19909;-74
2023/04/01 14:31:25;;;;;;;;;;;30.40;1.00;;;;;;5076667;28;19909;-73
2023/04/01 14:34:00;;;;;;;;;;;31.90;1.00;;;;;;5076620;28;19915;-74
2023/04/01 14:36:38;;;;;;;;;;;30.70;1.00;;;;;;5076461;28;19920;-75
2023/04/01 14:39:06;;;;;;;;;;;27.10;1.00;;;;;;5076805;28;19920;-74
2023/04/01 14:41:34;;;;;;;;;;;25.20;1.00;;;;;;5076441;28;19908;-73
2023/04/01 14:44:26;;;;;;;;;;;23.00;1.00;;;;;;5076050;28;19916;-75
2023/04/01 14:46:58;;;;;;;;;;;22.10;1.00;;;;;;5075065;28;19912;-74
2023/04/01 14:49:37;;;;;;;;;;;27.80;1.00;;;;;;5075051;28;19912;-73
2023/04/01 14:52:26;;;;;;;;;;;28.20;1.00;;;;;;5076404;28;19944;-75
2023/04/01 14:54:52;;;;;;;;;;;24.80;1.00;;;;;;5066272;28;20385;-73